createdAt,value
2023-04-13T00:02:39.125Z,99451.69
2023-04-13T00:07:43.305Z,99453.91
2023-04-13T00:12:48.271Z,99452.00
2023-04-13T00:17:51.805Z,99448.25
2023-04-13T00:22:54.541Z,99445.72
2023-04-13T00:28:02.653Z,99444.19
2023-04-13T00:33:05.843Z,99440.91
2023-04-13T00:38:08.838Z,99438.13
2023-04-13T00:43:12.997Z,99431.72
2023-04-13T00:48:16.015Z,99431.31
2023-04-13T00:53:18.857Z,99430.25
2023-04-13T00:58:23.537Z,99426.63
2023-04-13T01:03:27.366Z,99430.75
2023-04-13T01:08:36.990Z,99434.78
2023-04-13T01:13:47.833Z,99437.75
2023-04-13T01:18:54.139Z,99434.06
2023-04-13T01:24:10.209Z,99432.97
2023-04-13T01:29:15.834Z,99435.38
2023-04-13T01:34:18.908Z,99431.84
2023-04-13T01:39:22.373Z,99430.22
2023-04-13T01:44:36.574Z,99429.75
2023-04-13T01:49:39.557Z,99419.75
2023-04-13T01:54:57.911Z,99422.50
2023-04-13T02:00:15.331Z,99419.22
2023-04-13T02:05:21.557Z,99418.03
2023-04-13T02:10:24.366Z,99426.75
2023-04-13T02:15:28.800Z,99421.59
2023-04-13T02:20:33.656Z,99425.16
2023-04-13T02:25:36.417Z,99429.78
2023-04-13T02:30:40.680Z,99445.00
2023-04-13T02:35:43.651Z,99446.25
2023-04-13T02:40:46.862Z,99442.22
2023-04-13T02:45:51.238Z,99451.56
2023-04-13T02:50:55.668Z,99451.81
2023-04-13T02:56:02.239Z,99456.69
2023-04-13T03:01:07.733Z,99442.50
2023-04-13T03:06:11.359Z,99443.19
2023-04-13T03:11:23.512Z,99443.72
2023-04-13T03:16:45.923Z,99442.22
2023-04-13T03:21:50.380Z,99431.91
2023-04-13T03:26:57.947Z,99438.16
2023-04-13T03:32:09.010Z,99440.69
2023-04-13T03:37:15.874Z,99445.41
2023-04-13T03:42:19.296Z,99441.72
2023-04-13T03:47:30.448Z,99440.41
2023-04-13T03:52:33.626Z,99441.53
2023-04-13T03:57:37.323Z,99438.50
2023-04-13T04:02:45.174Z,99439.13
2023-04-13T04:07:53.503Z,99425.91
2023-04-13T04:12:57.282Z,99419.25
2023-04-13T04:18:02.295Z,99420.88
2023-04-13T04:23:06.344Z,99431.84
2023-04-13T04:28:18.499Z,99442.00
2023-04-13T04:33:25.634Z,99427.47
2023-04-13T04:38:30.406Z,99431.59
2023-04-13T04:43:35.750Z,99440.56
2023-04-13T04:48:41.533Z,99433.94
2023-04-13T04:53:44.452Z,99434.06
2023-04-13T04:58:47.660Z,99443.88
2023-04-13T05:03:52.455Z,99444.81
2023-04-13T05:09:05.907Z,99441.69
2023-04-13T05:14:11.725Z,99443.53
2023-04-13T05:19:17.005Z,99442.19
2023-04-13T05:24:28.440Z,99446.75
2023-04-13T05:29:35.472Z,99443.06
2023-04-13T05:34:42.752Z,99437.94
2023-04-13T05:39:50.133Z,99441.50
2023-04-13T05:44:56.499Z,99444.31
2023-04-13T05:50:02.856Z,99458.47
2023-04-13T05:55:07.532Z,99457.94
2023-04-13T06:00:12.688Z,99469.50
2023-04-13T06:05:28.965Z,99479.97
2023-04-13T06:10:32.938Z,99471.44
2023-04-13T06:15:38.831Z,99475.09
2023-04-13T06:20:42.983Z,99462.84
2023-04-13T06:25:45.968Z,99464.44
2023-04-13T06:30:52.119Z,99466.91
2023-04-13T06:35:56.363Z,99464.75
2023-04-13T06:41:03.004Z,99457.66
2023-04-13T06:46:08.401Z,99466.25
2023-04-13T06:51:16.880Z,99475.19
2023-04-13T06:56:19.839Z,99475.50
2023-04-13T07:01:23.544Z,99475.53
2023-04-13T07:06:29.737Z,99473.22
2023-04-13T07:11:33.111Z,99468.56
2023-04-13T07:16:37.409Z,99477.13
2023-04-13T07:21:41.850Z,99475.31
2023-04-13T07:26:44.938Z,99477.81
2023-04-13T07:31:48.722Z,99478.13
2023-04-13T07:36:53.148Z,99477.84
2023-04-13T07:41:58.062Z,99491.09
2023-04-13T07:47:14.084Z,99497.56
2023-04-13T07:52:20.712Z,99501.78
2023-04-13T07:57:24.077Z,99507.53
2023-04-13T08:02:33.106Z,99512.25
2023-04-13T08:07:37.511Z,99511.75
2023-04-13T08:12:40.571Z,99524.63
2023-04-13T08:17:43.820Z,99535.28
2023-04-13T08:22:49.195Z,99547.31
2023-04-13T08:27:56.330Z,99549.78
2023-04-13T08:32:59.274Z,99554.41
2023-04-13T08:38:05.331Z,99566.88
2023-04-13T08:43:09.404Z,99570.00
2023-04-13T08:48:14.918Z,99561.72
2023-04-13T08:53:20.822Z,99579.47
2023-04-13T08:58:25.863Z,99567.75
2023-04-13T09:03:33.961Z,99582.06
2023-04-13T09:08:40.568Z,99592.31
2023-04-13T09:13:49.866Z,99596.31
2023-04-13T09:18:53.354Z,99600.97
2023-04-13T09:24:00.213Z,99606.94
2023-04-13T09:29:05.328Z,99607.59
2023-04-13T09:34:08.976Z,99617.19
2023-04-13T09:39:14.457Z,99627.25
2023-04-13T09:44:20.151Z,99633.59
2023-04-13T09:49:24.076Z,99627.13
2023-04-13T09:54:28.763Z,99644.38
2023-04-13T09:59:33.509Z,99659.03
2023-04-13T10:04:36.862Z,99663.50
2023-04-13T10:09:42.056Z,99672.28
2023-04-13T10:14:48.721Z,99694.13
2023-04-13T10:19:54.415Z,99689.06
2023-04-13T10:24:58.748Z,99708.72
2023-04-13T10:30:04.040Z,99716.69
2023-04-13T10:35:10.536Z,99716.19
2023-04-13T10:40:16.265Z,99722.13
2023-04-13T10:45:21.719Z,99720.44
2023-04-13T10:50:27.613Z,99723.44
2023-04-13T10:55:32.517Z,99727.81
2023-04-13T11:00:44.542Z,99732.41
2023-04-13T11:05:49.923Z,99735.81
2023-04-13T11:10:55.148Z,99746.16
2023-04-13T11:16:04.639Z,99752.50
2023-04-13T11:21:15.129Z,99749.66
2023-04-13T11:26:19.651Z,99760.09
2023-04-13T11:31:22.832Z,99762.63
2023-04-13T11:36:26.545Z,99762.75
2023-04-13T11:41:32.819Z,99769.06
2023-04-13T11:46:35.772Z,99773.88
2023-04-13T11:51:38.991Z,99773.63
2023-04-13T11:56:43.251Z,99775.47
2023-04-13T12:01:53.186Z,99777.34
2023-04-13T12:07:10.238Z,99780.53
2023-04-13T12:17:39.185Z,99805.03
2023-04-13T12:27:54.423Z,99811.75
2023-04-13T12:32:57.215Z,99797.38
2023-04-13T12:38:00.308Z,99797.31
2023-04-13T12:43:04.586Z,99803.97
2023-04-13T12:48:09.121Z,99802.59
2023-04-13T12:53:12.043Z,99806.84
2023-04-13T12:58:16.157Z,99810.16
2023-04-13T13:03:19.107Z,99833.97
2023-04-13T13:08:22.065Z,99829.59
2023-04-13T13:13:26.436Z,99842.63
2023-04-13T13:18:42.409Z,99849.97
2023-04-13T13:23:51.888Z,99853.28
2023-04-13T13:28:56.004Z,99847.13
2023-04-13T13:33:58.906Z,99861.81
2023-04-13T13:39:01.795Z,99859.09
2023-04-13T13:44:06.129Z,99868.88
2023-04-13T13:49:09.152Z,99875.00
2023-04-13T13:54:28.940Z,99883.16
2023-04-13T13:59:33.062Z,99898.84
2023-04-13T14:04:36.594Z,99911.56
2023-04-13T14:09:39.387Z,99921.56
2023-04-13T14:14:43.560Z,99970.22
2023-04-13T14:19:46.416Z,99990.81
2023-04-13T14:24:51.712Z,100005.66
2023-04-13T14:29:55.906Z,99997.09
2023-04-13T14:35:00.491Z,100002.28
2023-04-13T14:40:05.088Z,100006.03
2023-04-13T14:45:11.283Z,100005.00
2023-04-13T14:50:15.449Z,100004.22
2023-04-13T14:55:19.268Z,100014.06
2023-04-13T15:00:38.455Z,100023.53
2023-04-13T15:05:42.280Z,100022.31
2023-04-13T15:10:45.761Z,100022.72
2023-04-13T15:15:51.906Z,100035.13
2023-04-13T15:20:55.074Z,100035.78
2023-04-13T15:25:57.997Z,100040.53
2023-04-13T15:31:02.079Z,100050.13
2023-04-13T15:36:05.733Z,100061.66
2023-04-13T15:41:09.950Z,100070.53
2023-04-13T15:46:14.267Z,100072.28
2023-04-13T15:51:17.233Z,100088.19
2023-04-13T15:56:20.560Z,100085.22
2023-04-13T16:01:25.488Z,100100.88
2023-04-13T16:06:28.548Z,100107.78
2023-04-13T16:11:32.206Z,100124.50
2023-04-13T16:16:44.147Z,100139.53
2023-04-13T16:21:50.788Z,100147.72
2023-04-13T16:26:53.614Z,100148.63
2023-04-13T16:31:57.896Z,100188.72
2023-04-13T16:37:00.748Z,100220.97
2023-04-13T16:42:03.581Z,100214.44
2023-04-13T16:47:07.951Z,100239.75
2023-04-13T16:52:10.753Z,100220.88
2023-04-13T16:57:13.530Z,100206.47
2023-04-13T17:02:30.723Z,100215.25
2023-04-13T17:07:34.599Z,100213.34
2023-04-13T17:12:37.780Z,100216.97
2023-04-13T17:17:46.421Z,100224.88
2023-04-13T17:22:49.317Z,100225.41
2023-04-13T17:27:53.383Z,100232.63
2023-04-13T17:32:58.564Z,100244.50
2023-04-13T17:38:01.483Z,100252.53
2023-04-13T17:43:05.682Z,100261.34
2023-04-13T17:48:11.042Z,100280.22
2023-04-13T17:53:13.817Z,100284.69
2023-04-13T17:58:16.609Z,100304.94
2023-04-13T18:03:20.985Z,100304.25
2023-04-13T18:08:23.844Z,100299.16
2023-04-13T18:13:27.244Z,100308.19
2023-04-13T18:18:31.455Z,100321.19
2023-04-13T18:23:35.591Z,100330.25
2023-04-13T18:28:38.630Z,100344.41
2023-04-13T18:33:44.001Z,100357.25
2023-04-13T18:38:49.816Z,100364.00
2023-04-13T18:43:52.596Z,100364.56
2023-04-13T18:48:56.843Z,100389.22
2023-04-13T18:54:00.071Z,100409.25
2023-04-13T18:59:03.089Z,100402.69
2023-04-13T19:04:07.442Z,100420.63
2023-04-13T19:09:10.407Z,100429.41
2023-04-13T19:14:13.235Z,100434.47
2023-04-13T19:19:18.914Z,100441.63
2023-04-13T19:24:22.171Z,100437.59
2023-04-13T19:29:26.901Z,100442.94
2023-04-13T19:34:31.391Z,100436.78
2023-04-13T19:39:36.568Z,100437.69
2023-04-13T19:44:39.592Z,100436.13
2023-04-13T19:49:44.060Z,100437.53
2023-04-13T19:54:47.299Z,100444.09
2023-04-13T19:59:50.240Z,100453.34
2023-04-13T20:04:54.629Z,100452.66
2023-04-13T20:09:57.492Z,100457.78
2023-04-13T20:15:00.356Z,100454.78
2023-04-13T20:20:06.430Z,100459.31
2023-04-13T20:25:11.212Z,100461.28
2023-04-13T20:30:14.661Z,100460.16
2023-04-13T20:35:19.908Z,100474.69
2023-04-13T20:40:26.999Z,100476.75
2023-04-13T20:45:30.407Z,100491.28
2023-04-13T20:50:35.688Z,100498.13
2023-04-13T20:55:39.198Z,100503.78
2023-04-13T21:00:42.492Z,100500.13
2023-04-13T21:05:46.683Z,100495.50
2023-04-13T21:10:49.897Z,100497.81
2023-04-13T21:15:52.687Z,100502.25
2023-04-13T21:20:56.840Z,100505.97
2023-04-13T21:25:59.595Z,100503.22
2023-04-13T21:31:02.488Z,100503.81
2023-04-13T21:41:16.491Z,100505.66
2023-04-13T21:46:19.417Z,100505.13
2023-04-13T21:51:23.545Z,100509.31
2023-04-13T21:56:27.206Z,100507.00
2023-04-13T22:01:30.073Z,100506.94
2023-04-13T22:06:34.318Z,100507.97
2023-04-13T22:11:37.078Z,100518.81
2023-04-13T22:16:39.847Z,100522.38
2023-04-13T22:21:43.974Z,100521.41
2023-04-13T22:26:47.029Z,100522.75
2023-04-13T22:31:49.811Z,100513.72
2023-04-13T22:36:54.748Z,100508.34
2023-04-13T22:41:58.158Z,100508.00
2023-04-13T22:47:01.062Z,100520.50
2023-04-13T22:52:05.614Z,100516.66
2023-04-13T22:57:08.346Z,100525.16
2023-04-13T23:02:12.402Z,100522.78
2023-04-13T23:07:16.552Z,100531.88
2023-04-13T23:12:19.292Z,100538.13
2023-04-13T23:17:22.070Z,100538.91
2023-04-13T23:22:26.494Z,100554.66
2023-04-13T23:27:29.344Z,100571.88
2023-04-13T23:32:32.080Z,100565.88
2023-04-13T23:37:36.215Z,100564.25
2023-04-13T23:42:38.983Z,100575.06
2023-04-13T23:47:42.266Z,100575.47
2023-04-13T23:52:46.645Z,100579.22
2023-04-13T23:57:49.379Z,100588.56
